Aitkin, MN

6:45 AM CDT on July 24, 2014 (GMT -0500)
Aitkin Municipal / Steve Kurtz Field (KAIT) Elev 1204 ft | 46.55 °N, 93.68 °W | Change Station

Current weather conditions updated 11 minutes ago

Haze
Haze
50 °F
Feels Like 50 °F
N
0
Wind Variable Wind from North

Today is forecast to be nearly the same temperature as yesterday.

Today
High -- | Low -- °F
--% Chance of Precip.
Yesterday
High -- | Low -- °F
Precip. -- in
5:46 AM 8:55 PM
Waning Crescent, 5% visible
Pressure 30.15 in
Visibility 2.5 miles
Clouds Clear
Dew Point 45 °F
Humidity 82%
Rainfall 0.00 in
Snow Depth Not available.
UV 0 out of 12
Pollen 6.60 out of 12
Air Quality Not available.
Flu Activity Not available.
METAR KAIT 241134Z AUTO 00000KT 2 1/2SM HZ CLR 10/07 A3015 RMK AO2

More Conditions Fewer Conditions

Pressure 30.15 in
Visibility 2.5 miles
Clouds Clear
Dew Point 45 °F
Humidity 82%
Rainfall 0.00 in
Snow Depth Not available.
UV 0 out of 12
Pollen 6.60 out of 12
Air Quality Not available.
Flu Activity Not available.
METAR KAIT 241134Z AUTO 00000KT 2 1/2SM HZ CLR 10/07 A3015 RMK AO2

More Conditions Fewer Conditions

10-Day Weather Forecast

Almanac

Astronomy

Jul. 24, 2014 Rise Set
Actual Time 5:46 AM CDT 8:55 PM CDT
Civil Twilight 5:10 AM CDT 9:31 PM CDT
Nautical Twilight 4:23 AM CDT 10:18 PM CDT
Astronomical Twilight 3:24 AM CDT 11:16 PM CDT
Moon 3:56 AM CDT 7:09 PM CDT
Length of Visible Light 16h 21m
Length of Day
15h 09m
Tomorrow will be 2m 15s shorter.
Waning Crescent, 5% of the Moon is Illuminated
Today
Waning Crescent
Jul 26
New
Aug 3
First Quarter
Aug 10
Full
Aug 17
Last Quarter

Today's Extremes

State Highs State Lows

Community

WunderPhotos

Upload Photos

1,736,978 photos uploaded!

Nearby

Snow Depth

Station Depth Elevation
No new snow has been reported.

Earthquake Activity

City Distance Mag. Time & Date
No recent earthquake activity has been reported nearby.
Minimum magnitude displayed is 2.5.

Coastal Water Temperatures

Place Temperature
No Stations Reporting

Nearby Weather Stations

Station Location Temp. Windchill Dew Point Humidity Wind Precip. Elev Updated Type
Bay Lake Woodland Beach, Deerwood, MN 57.4 °F - 57 °F 98% SW  at  0.0 mph - / hr 1289 ft 6:37 AM CDT Normal
Sherwood, Aitkin, MN 53.2 °F - 53 °F 98% South  at  0.0 mph - / hr 1263 ft 6:38 AM CDT Normal
Emily, Emily, MN 54.5 °F - 54 °F 99% NNE  at  0.0 mph 0.00 in / hr 1302 ft 6:45 AM CDT Rapid Fire
RAWS RICE LAKE NWR MN, Tamarack, MN 47 °F 47 °F 47 °F 100% SW  at  2 mph 0.00 in / hr 1185 ft 5:52 AM CDT MADIS
Downtown Lougee, Merrifield, MN 56.0 °F - 55 °F 95% NW  at  0.0 mph 0.00 in / hr 1194 ft 6:45 AM CDT Rapid Fire
Merrifield, MN 59.3 °F - 58 °F 96% NW  at  0.0 mph 0.00 in / hr 1227 ft 6:45 AM CDT Normal

Show More Stations Show Fewer Stations